createdAt,value
2019-05-22T00:01:39.405Z,100970.17
2019-05-22T00:04:13.377Z,100972.09
2019-05-22T00:06:45.250Z,100986.77
2019-05-22T00:09:20.450Z,100978.27
2019-05-22T00:11:52.085Z,100980.10
2019-05-22T00:14:22.303Z,100988.79
2019-05-22T00:16:51.985Z,100988.79
2019-05-22T00:19:22.525Z,100987.69
2019-05-22T00:21:53.737Z,100985.63
2019-05-22T00:24:26.462Z,100985.30
2019-05-22T00:26:55.872Z,100988.56
2019-05-22T00:29:26.245Z,100988.86
2019-05-22T00:31:56.988Z,100997.36
2019-05-22T00:34:27.939Z,100995.28
2019-05-22T00:36:57.569Z,100998.12
2019-05-22T00:39:28.536Z,100998.25
2019-05-22T00:41:58.148Z,100994.31
2019-05-22T00:44:29.126Z,101002.95
2019-05-22T00:47:00.819Z,100997.07
2019-05-22T00:49:31.054Z,101006.55
2019-05-22T00:52:19.916Z,101004.69
2019-05-22T00:54:59.256Z,100999.78
2019-05-22T00:57:42.166Z,101000.53
2019-05-22T01:00:24.122Z,101003.59
2019-05-22T01:02:56.961Z,101007.14
2019-05-22T01:05:29.428Z,101008.50
2019-05-22T01:08:00.455Z,101016.47
2019-05-22T01:10:30.046Z,101013.91
2019-05-22T01:13:01.197Z,101017.12
2019-05-22T01:15:31.619Z,101017.73
2019-05-22T01:18:04.660Z,101016.00
2019-05-22T01:20:34.508Z,101016.61
2019-05-22T01:23:03.939Z,101021.27
2019-05-22T01:25:34.224Z,101018.56
2019-05-22T01:28:04.160Z,101019.30
2019-05-22T01:30:44.451Z,101026.21
2019-05-22T01:33:18.627Z,101027.20
2019-05-22T01:36:01.465Z,101034.19
2019-05-22T01:38:32.567Z,101029.66
2019-05-22T01:41:18.475Z,101020.06
2019-05-22T01:43:50.177Z,101024.36
2019-05-22T01:46:21.673Z,101021.70
2019-05-22T01:48:53.757Z,101023.38
2019-05-22T01:51:23.152Z,101029.16
2019-05-22T01:53:53.916Z,101034.33
2019-05-22T01:56:24.692Z,101034.56
2019-05-22T01:58:54.725Z,101029.89
2019-05-22T02:01:26.883Z,101036.38
2019-05-22T02:03:56.437Z,101030.59
2019-05-22T02:06:26.382Z,101034.79
2019-05-22T02:09:00.001Z,101037.27
2019-05-22T02:11:30.186Z,101034.94
2019-05-22T02:14:14.027Z,101041.09
2019-05-22T02:16:56.192Z,101034.94
2019-05-22T02:19:16.462Z,101048.81
2019-05-22T02:21:45.912Z,101046.07
2019-05-22T02:24:15.924Z,101043.13
2019-05-22T02:26:45.964Z,101042.89
2019-05-22T02:29:17.336Z,101036.59
2019-05-22T02:31:47.999Z,101048.81
2019-05-22T02:34:18.374Z,101037.41
2019-05-22T02:36:48.552Z,101045.98
2019-05-22T02:39:19.830Z,101036.80
2019-05-22T02:41:54.070Z,101043.42
2019-05-22T02:44:25.270Z,101045.52
2019-05-22T02:47:14.384Z,101046.73
2019-05-22T02:49:29.892Z,101042.30
2019-05-22T02:52:00.841Z,101052.00
2019-05-22T02:54:32.490Z,101058.05
2019-05-22T02:57:03.534Z,101054.23
2019-05-22T02:59:32.974Z,101050.69
2019-05-22T03:02:03.781Z,101055.34
2019-05-22T03:04:54.703Z,101056.80
2019-05-22T03:07:25.816Z,101068.25
2019-05-22T03:09:56.402Z,101068.25
2019-05-22T03:12:27.690Z,101071.20
2019-05-22T03:14:58.023Z,101072.31
2019-05-22T03:17:30.560Z,101078.42
2019-05-22T03:20:03.860Z,101076.84
2019-05-22T03:22:48.434Z,101085.45
2019-05-22T03:25:18.219Z,101083.99
2019-05-22T03:27:50.222Z,101086.42
2019-05-22T03:30:31.103Z,101091.73
2019-05-22T03:33:06.235Z,101089.77
2019-05-22T03:35:42.322Z,101103.52
2019-05-22T03:38:12.880Z,101101.66
2019-05-22T03:40:42.720Z,101093.94
2019-05-22T03:43:24.449Z,101097.25
2019-05-22T03:45:55.766Z,101103.39
2019-05-22T03:48:26.386Z,101103.75
2019-05-22T03:51:01.001Z,101107.05
2019-05-22T03:53:30.476Z,101113.56
2019-05-22T03:55:59.886Z,101116.64
2019-05-22T03:58:29.352Z,101116.16
2019-05-22T04:00:59.331Z,101117.63
2019-05-22T04:03:29.006Z,101119.13
2019-05-22T04:05:59.439Z,101114.93
2019-05-22T04:08:29.010Z,101116.77
2019-05-22T04:11:01.876Z,101118.87
2019-05-22T04:13:32.874Z,101125.75
2019-05-22T04:16:05.114Z,101125.88
2019-05-22T04:18:35.859Z,101126.25
2019-05-22T04:21:05.893Z,101127.09
2019-05-22T04:23:36.683Z,101125.98
2019-05-22T04:26:08.625Z,101132.48
2019-05-22T04:28:50.948Z,101139.36
2019-05-22T04:31:23.042Z,101144.38
2019-05-22T04:33:53.078Z,101144.63
2019-05-22T04:36:23.995Z,101139.23
2019-05-22T04:38:53.858Z,101153.48
2019-05-22T04:41:23.458Z,101146.00
2019-05-22T04:43:53.607Z,101148.08
2019-05-22T04:46:23.323Z,101149.20
2019-05-22T04:48:53.978Z,101149.20
2019-05-22T04:51:26.495Z,101152.39
2019-05-22T04:53:58.262Z,101150.17
2019-05-22T04:56:28.529Z,101153.72
2019-05-22T04:58:59.560Z,101154.36
2019-05-22T05:01:30.203Z,101158.04
2019-05-22T05:03:59.779Z,101163.93
2019-05-22T05:06:31.132Z,101166.36
2019-05-22T05:09:00.552Z,101170.91
2019-05-22T05:11:30.395Z,101168.70
2019-05-22T05:14:00.193Z,101177.80
2019-05-22T05:16:29.573Z,101177.89
2019-05-22T05:18:59.382Z,101169.39
2019-05-22T05:21:29.534Z,101169.84
2019-05-22T05:23:59.113Z,101176.35
2019-05-22T05:26:31.543Z,101173.91
2019-05-22T05:29:01.212Z,101173.91
2019-05-22T05:31:30.683Z,101172.41
2019-05-22T05:34:17.801Z,101183.20
2019-05-22T05:36:47.571Z,101181.02
2019-05-22T05:39:39.997Z,101188.36
2019-05-22T05:42:09.550Z,101194.61
2019-05-22T05:44:39.123Z,101194.86
2019-05-22T05:47:08.709Z,101197.81
2019-05-22T05:49:39.141Z,101203.94
2019-05-22T05:52:10.114Z,101202.34
2019-05-22T05:54:39.488Z,101207.08
2019-05-22T05:57:35.537Z,101207.30
2019-05-22T06:00:10.279Z,101216.47
2019-05-22T06:02:54.009Z,101213.02
2019-05-22T06:05:11.280Z,101218.76
2019-05-22T06:07:40.995Z,101214.45
2019-05-22T06:10:29.522Z,101226.59
2019-05-22T06:13:00.471Z,101229.89
2019-05-22T06:15:47.595Z,101230.64
2019-05-22T06:18:34.656Z,101238.87
2019-05-22T06:21:06.088Z,101237.77
2019-05-22T06:23:42.179Z,101251.27
2019-05-22T06:26:16.635Z,101245.36
2019-05-22T06:28:46.848Z,101252.36
2019-05-22T06:31:40.854Z,101250.76
2019-05-22T06:34:10.650Z,101252.58
2019-05-22T06:36:40.384Z,101256.87
2019-05-22T06:39:10.075Z,101265.44
2019-05-22T06:41:41.251Z,101264.97
2019-05-22T06:44:28.310Z,101271.09
2019-05-22T06:46:58.134Z,101263.53
2019-05-22T06:49:35.663Z,101267.84
2019-05-22T06:52:07.239Z,101267.59
2019-05-22T06:54:37.344Z,101268.22
2019-05-22T06:57:09.409Z,101270.79
2019-05-22T06:59:39.741Z,101273.66
2019-05-22T07:02:10.313Z,101273.78
2019-05-22T07:04:39.674Z,101266.19
2019-05-22T07:07:11.853Z,101262.17
2019-05-22T07:09:42.075Z,101265.97
2019-05-22T07:12:14.318Z,101278.38
2019-05-22T07:15:06.750Z,101270.52
2019-05-22T07:17:37.398Z,101278.41
2019-05-22T07:20:07.519Z,101273.23
2019-05-22T07:22:37.544Z,101284.74
2019-05-22T07:25:09.467Z,101284.74
2019-05-22T07:27:39.795Z,101297.81
2019-05-22T07:30:10.333Z,101291.69
2019-05-22T07:32:40.084Z,101304.47
2019-05-22T07:35:09.578Z,101291.00
2019-05-22T07:37:40.875Z,101296.41
2019-05-22T07:40:11.419Z,101296.56
2019-05-22T07:42:40.858Z,101303.25
2019-05-22T07:45:12.373Z,101306.73
2019-05-22T07:47:42.711Z,101305.42
2019-05-22T07:50:13.412Z,101315.84
2019-05-22T07:52:43.743Z,101307.21
2019-05-22T07:55:13.961Z,101327.63
2019-05-22T07:57:48.586Z,101320.38
2019-05-22T08:00:19.953Z,101322.98
2019-05-22T08:02:50.334Z,101329.95
2019-05-22T08:05:21.420Z,101329.83
2019-05-22T08:07:51.357Z,101323.42
2019-05-22T08:10:22.018Z,101328.95
2019-05-22T08:12:51.806Z,101326.62
2019-05-22T08:15:22.057Z,101325.88
2019-05-22T08:17:51.535Z,101328.80
2019-05-22T08:20:21.180Z,101332.37
2019-05-22T08:22:51.337Z,101340.61
2019-05-22T08:25:20.844Z,101341.33
2019-05-22T08:27:50.617Z,101343.21
2019-05-22T08:30:21.224Z,101345.03
2019-05-22T08:32:50.891Z,101351.91
2019-05-22T08:35:20.863Z,101358.28
2019-05-22T08:37:53.410Z,101352.63
2019-05-22T08:40:23.558Z,101352.76
2019-05-22T08:42:53.105Z,101348.52
2019-05-22T08:45:23.139Z,101348.20
2019-05-22T08:47:52.825Z,101351.00
2019-05-22T08:50:24.449Z,101357.75
2019-05-22T08:52:53.959Z,101344.78
2019-05-22T08:55:24.826Z,101359.01
2019-05-22T08:57:54.489Z,101357.28
2019-05-22T09:00:25.158Z,101357.28
2019-05-22T09:02:54.695Z,101352.16
2019-05-22T09:05:24.118Z,101360.04
2019-05-22T09:07:53.585Z,101356.26
2019-05-22T09:10:26.236Z,101355.80
2019-05-22T09:12:54.913Z,101362.09
2019-05-22T09:15:25.474Z,101367.66
2019-05-22T09:17:54.946Z,101362.87
2019-05-22T09:20:24.633Z,101365.58
2019-05-22T09:22:54.771Z,101370.85
2019-05-22T09:25:24.365Z,101370.13
2019-05-22T09:27:53.789Z,101370.40
2019-05-22T09:30:24.296Z,101368.94
2019-05-22T09:32:54.143Z,101376.80
2019-05-22T09:35:24.161Z,101372.61
2019-05-22T09:37:53.671Z,101379.02
2019-05-22T09:40:23.258Z,101382.11
2019-05-22T09:42:52.759Z,101384.96
2019-05-22T09:45:22.665Z,101386.96
2019-05-22T09:47:53.075Z,101393.59
2019-05-22T09:50:24.180Z,101385.48
2019-05-22T09:52:58.004Z,101384.37
2019-05-22T09:55:25.459Z,101384.02
2019-05-22T09:57:55.322Z,101380.81
2019-05-22T10:00:25.163Z,101389.41
2019-05-22T10:02:54.745Z,101384.00
2019-05-22T10:05:24.777Z,101387.17
2019-05-22T10:08:00.922Z,101387.88
2019-05-22T10:10:26.741Z,101387.73
2019-05-22T10:12:56.649Z,101396.98
2019-05-22T10:15:26.429Z,101398.70
2019-05-22T10:17:55.975Z,101403.39
2019-05-22T10:20:26.117Z,101400.72
2019-05-22T10:22:55.713Z,101407.13
2019-05-22T10:25:25.407Z,101408.85
2019-05-22T10:27:58.977Z,101408.85
2019-05-22T10:30:26.208Z,101413.62
2019-05-22T10:32:55.697Z,101413.38
2019-05-22T10:35:26.742Z,101414.97
2019-05-22T10:37:56.729Z,101409.49
2019-05-22T10:40:27.062Z,101417.41
2019-05-22T10:42:57.194Z,101416.04
2019-05-22T10:45:27.551Z,101414.77
2019-05-22T10:47:58.284Z,101417.99
2019-05-22T10:50:28.495Z,101423.52
2019-05-22T10:52:58.594Z,101416.16
2019-05-22T10:55:30.138Z,101412.71
2019-05-22T10:58:00.129Z,101423.20
2019-05-22T11:00:30.558Z,101418.75
2019-05-22T11:03:00.011Z,101420.84
2019-05-22T11:05:30.102Z,101417.41
2019-05-22T11:07:59.802Z,101422.22
2019-05-22T11:10:29.642Z,101422.45
2019-05-22T11:12:59.396Z,101423.79
2019-05-22T11:15:29.812Z,101429.66
2019-05-22T11:17:59.389Z,101435.70
2019-05-22T11:20:30.032Z,101438.20
2019-05-22T11:22:59.787Z,101435.98
2019-05-22T11:25:29.500Z,101435.02
2019-05-22T11:28:00.109Z,101438.83
2019-05-22T11:30:29.843Z,101438.33
2019-05-22T11:32:59.895Z,101431.08
2019-05-22T11:35:30.622Z,101432.64
2019-05-22T11:37:59.989Z,101435.27
2019-05-22T11:40:29.372Z,101436.48
2019-05-22T11:42:59.086Z,101437.70
2019-05-22T11:45:29.850Z,101438.19
2019-05-22T11:47:59.223Z,101436.33
2019-05-22T11:50:30.529Z,101434.52
2019-05-22T11:52:59.953Z,101432.19
2019-05-22T11:55:44.247Z,101440.05
2019-05-22T11:58:02.542Z,101436.30
2019-05-22T12:00:32.469Z,101435.19
2019-05-22T12:03:02.198Z,101437.78
2019-05-22T12:05:33.945Z,101438.48
2019-05-22T12:08:03.479Z,101439.44
2019-05-22T12:10:33.523Z,101439.88
2019-05-22T12:13:03.862Z,101436.87
2019-05-22T12:15:35.084Z,101436.98
2019-05-22T12:18:04.948Z,101439.20
2019-05-22T12:20:34.476Z,101436.34
2019-05-22T12:23:03.892Z,101435.58
2019-05-22T12:25:34.509Z,101436.22
2019-05-22T12:28:05.075Z,101440.59
2019-05-22T12:30:35.412Z,101437.27
2019-05-22T12:33:13.127Z,101439.11
2019-05-22T12:35:39.891Z,101439.75
2019-05-22T12:38:10.063Z,101438.95
2019-05-22T12:40:39.894Z,101435.30
2019-05-22T12:43:10.300Z,101437.86
2019-05-22T12:45:39.769Z,101433.55
2019-05-22T12:48:09.400Z,101430.63
2019-05-22T12:50:39.269Z,101435.05
2019-05-22T12:53:09.254Z,101428.04
2019-05-22T12:55:39.916Z,101428.47
2019-05-22T12:58:11.045Z,101426.20
2019-05-22T13:00:41.370Z,101424.52
2019-05-22T13:03:11.688Z,101422.66
2019-05-22T13:05:41.270Z,101423.77
2019-05-22T13:08:12.521Z,101419.58
2019-05-22T13:10:42.025Z,101411.33
2019-05-22T13:13:11.584Z,101417.38
2019-05-22T13:15:41.798Z,101418.38
2019-05-22T13:18:13.060Z,101414.05
2019-05-22T13:20:44.988Z,101415.42
2019-05-22T13:23:17.002Z,101408.77
2019-05-22T13:25:46.390Z,101404.23
2019-05-22T13:28:18.318Z,101405.55
2019-05-22T13:30:51.065Z,101404.66
2019-05-22T13:33:22.365Z,101392.12
2019-05-22T13:35:52.085Z,101404.41
2019-05-22T13:38:21.639Z,101403.37
2019-05-22T13:40:52.063Z,101397.03
2019-05-22T13:43:21.420Z,101393.05
2019-05-22T13:45:50.861Z,101392.59
2019-05-22T13:48:20.412Z,101400.03
2019-05-22T13:50:50.627Z,101397.99
2019-05-22T13:53:21.442Z,101403.30
2019-05-22T13:55:52.012Z,101399.22
2019-05-22T13:58:23.662Z,101404.92
2019-05-22T14:00:53.214Z,101400.61
2019-05-22T14:03:24.013Z,101398.95
2019-05-22T14:05:54.656Z,101405.86
2019-05-22T14:08:24.778Z,101403.86
2019-05-22T14:10:54.610Z,101402.23
2019-05-22T14:13:26.369Z,101396.45
2019-05-22T14:15:57.272Z,101395.06
2019-05-22T14:18:27.670Z,101394.72
2019-05-22T14:20:57.325Z,101397.31
2019-05-22T14:23:26.782Z,101400.04
2019-05-22T14:25:56.425Z,101388.58
2019-05-22T14:28:27.384Z,101388.21
2019-05-22T14:30:57.408Z,101380.02
2019-05-22T14:33:28.293Z,101377.59
2019-05-22T14:35:59.163Z,101380.87
2019-05-22T14:38:29.210Z,101379.63
2019-05-22T14:40:58.578Z,101372.22
2019-05-22T14:43:29.102Z,101371.11
2019-05-22T14:45:58.863Z,101366.55
2019-05-22T14:48:28.549Z,101364.38
2019-05-22T14:50:59.243Z,101371.48
2019-05-22T14:53:28.973Z,101357.02
2019-05-22T14:55:59.483Z,101370.54
2019-05-22T14:58:29.084Z,101363.59
2019-05-22T15:00:58.473Z,101368.06
2019-05-22T15:03:28.219Z,101367.52
2019-05-22T15:05:57.626Z,101370.84
2019-05-22T15:08:27.289Z,101376.89
2019-05-22T15:10:57.928Z,101372.44
2019-05-22T15:13:27.627Z,101368.35
2019-05-22T15:15:57.514Z,101370.75
2019-05-22T15:18:26.937Z,101365.25
2019-05-22T15:21:08.307Z,101370.58
2019-05-22T15:23:38.519Z,101372.81
2019-05-22T15:26:13.551Z,101367.16
2019-05-22T15:29:02.713Z,101371.77
2019-05-22T15:31:38.370Z,101360.64
2019-05-22T15:34:07.828Z,101363.03
2019-05-22T15:36:37.854Z,101359.77
2019-05-22T15:39:08.817Z,101356.00
2019-05-22T15:41:38.639Z,101355.33
2019-05-22T15:44:08.648Z,101348.80
2019-05-22T15:46:41.367Z,101352.03
2019-05-22T15:49:10.853Z,101349.43
2019-05-22T15:51:43.131Z,101344.44
2019-05-22T15:54:14.187Z,101346.81
2019-05-22T15:56:45.406Z,101349.06
2019-05-22T15:59:15.057Z,101347.89
2019-05-22T16:01:46.085Z,101343.44
2019-05-22T16:04:16.564Z,101350.17
2019-05-22T16:06:47.002Z,101351.88
2019-05-22T16:09:17.969Z,101346.77
2019-05-22T16:11:50.526Z,101352.92
2019-05-22T16:14:19.895Z,101346.41
2019-05-22T16:16:49.858Z,101341.64
2019-05-22T16:19:21.195Z,101343.29
2019-05-22T16:21:52.147Z,101351.36
2019-05-22T16:24:22.311Z,101341.57
2019-05-22T16:26:52.471Z,101341.57
2019-05-22T16:29:22.038Z,101345.00
2019-05-22T16:31:51.833Z,101343.09
2019-05-22T16:34:21.991Z,101345.70
2019-05-22T16:36:52.288Z,101346.05
2019-05-22T16:39:22.338Z,101340.94
2019-05-22T16:41:52.299Z,101340.94
2019-05-22T16:44:22.082Z,101338.01
2019-05-22T16:46:52.015Z,101338.01
2019-05-22T16:49:22.261Z,101342.78
2019-05-22T16:51:52.750Z,101344.31
2019-05-22T16:54:22.866Z,101344.14
2019-05-22T16:56:53.216Z,101345.52
2019-05-22T16:59:23.293Z,101342.94
2019-05-22T17:01:59.288Z,101339.02
2019-05-22T17:04:23.926Z,101338.80
2019-05-22T17:06:53.978Z,101345.83
2019-05-22T17:09:23.951Z,101344.61
2019-05-22T17:11:53.567Z,101346.83
2019-05-22T17:14:24.961Z,101356.56
2019-05-22T17:16:54.518Z,101354.99
2019-05-22T17:19:27.451Z,101354.27
2019-05-22T17:21:55.789Z,101354.38
2019-05-22T17:24:27.153Z,101360.48
2019-05-22T17:26:57.550Z,101352.94
2019-05-22T17:29:27.344Z,101351.74
2019-05-22T17:31:57.959Z,101352.59
2019-05-22T17:34:35.135Z,101351.75
2019-05-22T17:37:08.128Z,101359.46
2019-05-22T17:39:39.254Z,101347.11
2019-05-22T17:42:10.542Z,101361.94
2019-05-22T17:44:42.733Z,101351.00
2019-05-22T17:47:13.368Z,101348.76
2019-05-22T17:49:42.812Z,101348.27
2019-05-22T17:52:13.410Z,101354.89
2019-05-22T17:54:42.794Z,101361.38
2019-05-22T17:57:13.811Z,101358.45
2019-05-22T17:59:43.546Z,101357.23
2019-05-22T18:02:16.558Z,101356.86
2019-05-22T18:04:45.928Z,101356.59
2019-05-22T18:07:16.786Z,101356.05
2019-05-22T18:09:46.160Z,101354.64
2019-05-22T18:12:16.003Z,101362.13
2019-05-22T18:14:46.787Z,101351.05
2019-05-22T18:17:16.247Z,101363.97
2019-05-22T18:19:45.634Z,101363.56
2019-05-22T18:22:16.454Z,101365.41
2019-05-22T18:24:46.194Z,101365.74
2019-05-22T18:27:16.849Z,101366.56
2019-05-22T18:29:46.217Z,101369.41
2019-05-22T18:32:16.163Z,101371.55
2019-05-22T18:34:45.525Z,101373.35
2019-05-22T18:37:15.199Z,101368.00
2019-05-22T18:39:44.944Z,101369.64
2019-05-22T18:42:14.642Z,101366.83
2019-05-22T18:44:44.010Z,101369.43
2019-05-22T18:47:21.275Z,101373.44
2019-05-22T18:49:50.795Z,101378.60
2019-05-22T18:52:20.785Z,101382.73
2019-05-22T18:54:50.232Z,101380.61
2019-05-22T18:57:19.971Z,101382.72
2019-05-22T18:59:49.669Z,101387.87
2019-05-22T19:02:19.241Z,101384.55
2019-05-22T19:04:49.100Z,101384.08
2019-05-22T19:07:18.854Z,101383.44
2019-05-22T19:09:48.227Z,101389.42
2019-05-22T19:12:18.367Z,101381.45
2019-05-22T19:14:47.808Z,101389.37
2019-05-22T19:17:17.283Z,101394.19
2019-05-22T19:19:46.765Z,101392.69
2019-05-22T19:22:16.816Z,101393.41
2019-05-22T19:24:46.189Z,101394.63
2019-05-22T19:27:15.944Z,101396.29
2019-05-22T19:29:45.332Z,101403.77
2019-05-22T19:32:15.921Z,101397.88
2019-05-22T19:34:45.411Z,101403.74
2019-05-22T19:37:17.178Z,101406.20
2019-05-22T19:39:46.910Z,101407.11
2019-05-22T19:42:16.643Z,101407.17
2019-05-22T19:44:46.098Z,101413.19
2019-05-22T19:47:16.499Z,101406.05
2019-05-22T19:49:46.053Z,101406.05
2019-05-22T19:52:22.135Z,101420.79
2019-05-22T19:54:48.880Z,101423.77
2019-05-22T19:57:18.481Z,101423.77
2019-05-22T19:59:48.113Z,101427.83
2019-05-22T20:02:18.853Z,101432.44
2019-05-22T20:04:48.298Z,101431.27
2019-05-22T20:07:23.925Z,101429.11
2019-05-22T20:31:04.082Z,101449.38
2019-05-22T20:33:33.754Z,101449.10
2019-05-22T20:36:03.152Z,101452.23
2019-05-22T20:38:32.887Z,101457.09
2019-05-22T20:41:02.239Z,101458.24
2019-05-22T20:43:32.907Z,101457.52
2019-05-22T20:46:02.809Z,101462.73
2019-05-22T20:48:33.812Z,101458.59
2019-05-22T20:51:04.656Z,101465.53
2019-05-22T20:53:52.182Z,101458.30
2019-05-22T20:56:08.068Z,101463.34
2019-05-22T20:58:39.110Z,101464.72
2019-05-22T21:01:10.402Z,101468.42
2019-05-22T21:03:40.926Z,101462.62
2019-05-22T21:06:12.378Z,101464.84
2019-05-22T21:08:43.445Z,101473.48
2019-05-22T21:11:16.238Z,101469.05
2019-05-22T21:13:46.157Z,101465.73
2019-05-22T21:16:17.523Z,101469.79
2019-05-22T21:18:49.428Z,101476.59
2019-05-22T21:21:19.267Z,101470.30
2019-05-22T21:23:49.247Z,101478.08
2019-05-22T21:26:20.606Z,101480.78
2019-05-22T21:28:50.041Z,101482.98
2019-05-22T21:31:20.701Z,101483.48
2019-05-22T21:33:50.889Z,101483.22
2019-05-22T21:36:20.629Z,101481.98
2019-05-22T21:38:50.640Z,101492.44
2019-05-22T21:41:21.922Z,101488.02
2019-05-22T21:43:52.014Z,101485.30
2019-05-22T21:46:21.998Z,101492.28
2019-05-22T21:48:55.215Z,101493.77
2019-05-22T21:51:24.690Z,101488.95
2019-05-22T21:53:54.458Z,101486.98
2019-05-22T21:56:24.935Z,101488.66
2019-05-22T21:58:54.417Z,101489.39
2019-05-22T22:01:29.307Z,101496.51
2019-05-22T22:04:03.533Z,101492.30
2019-05-22T22:06:34.684Z,101496.23
2019-05-22T22:09:06.487Z,101502.50
2019-05-22T22:11:36.826Z,101503.70
2019-05-22T22:14:07.266Z,101502.09
2019-05-22T22:16:36.750Z,101503.67
2019-05-22T22:19:07.398Z,101501.22
2019-05-22T22:21:38.695Z,101503.55
2019-05-22T22:24:09.458Z,101506.60
2019-05-22T22:26:39.152Z,101513.20
2019-05-22T22:29:09.524Z,101512.70
2019-05-22T22:31:40.670Z,101504.81
2019-05-22T22:34:19.315Z,101507.48
2019-05-22T22:36:49.159Z,101501.81
2019-05-22T22:39:19.986Z,101506.97
2019-05-22T22:41:50.583Z,101510.90
2019-05-22T22:44:20.592Z,101512.22
2019-05-22T22:46:52.124Z,101508.97
2019-05-22T22:49:23.445Z,101517.20
2019-05-22T22:51:53.085Z,101520.63
2019-05-22T22:54:23.253Z,101525.27
2019-05-22T22:56:53.401Z,101521.80
2019-05-22T22:59:22.845Z,101515.42
2019-05-22T23:01:54.939Z,101522.59
2019-05-22T23:04:26.586Z,101513.48
2019-05-22T23:06:58.826Z,101521.45
2019-05-22T23:09:29.459Z,101517.52
2019-05-22T23:11:59.794Z,101517.73
2019-05-22T23:14:29.543Z,101519.88
2019-05-22T23:16:59.090Z,101524.64
2019-05-22T23:19:37.923Z,101521.98
2019-05-22T23:22:08.080Z,101525.13
2019-05-22T23:24:38.905Z,101526.34
2019-05-22T23:27:10.128Z,101521.14
2019-05-22T23:29:40.527Z,101519.53
2019-05-22T23:32:11.934Z,101521.94
2019-05-22T23:34:41.570Z,101516.02
2019-05-22T23:37:13.074Z,101519.04
2019-05-22T23:39:42.510Z,101514.34
2019-05-22T23:42:16.148Z,101516.02
2019-05-22T23:44:46.197Z,101513.55
2019-05-22T23:47:15.666Z,101514.84
2019-05-22T23:49:46.972Z,101519.22
2019-05-22T23:52:16.629Z,101515.95
2019-05-22T23:54:46.002Z,101522.67
2019-05-22T23:57:16.717Z,101522.61
2019-05-22T23:59:49.106Z,101519.95
